Time;durP1;ratioP1;P1;durP2;ratioP2;P2;SDS_P1;SDS_P2;PMS_P1;PMS_P2;Temp;Humidity;BMP_temperature;BMP_pressure;BME280_temperature;BME280_humidity;BME280_pressure;Samples;Min_cycle;Max_cycle;Signal;HPM_P1;HPM_P2
2022/12/11 00:00:06;;;;;;;35.53;15.27;;;4.70;89.40;;;;;;4946512;29;20205;-96
2022/12/11 00:02:36;;;;;;;31.53;13.47;;;4.80;90.20;;;;;;4943857;29;20239;-96
2022/12/11 00:05:06;;;;;;;28.23;13.80;;;4.80;89.60;;;;;;4944136;29;20216;-95
2022/12/11 00:07:39;;;;;;;26.80;13.70;;;4.80;89.60;;;;;;4938705;29;20344;-96
2022/12/11 00:10:08;;;;;;;29.33;13.87;;;4.80;90.00;;;;;;4941311;29;20236;-93
2022/12/11 00:12:36;;;;;;;38.77;15.20;;;4.80;90.00;;;;;;4930690;29;20208;-95
2022/12/11 00:15:06;;;;;;;38.87;15.67;;;4.80;89.70;;;;;;4947705;28;20196;-95
2022/12/11 00:17:34;;;;;;;25.30;12.90;;;4.90;90.00;;;;;;4947516;29;20288;-95
2022/12/11 00:20:05;;;;;;;26.97;13.20;;;4.90;90.00;;;;;;4939427;29;20243;-95
2022/12/11 00:22:35;;;;;;;27.93;14.27;;;4.90;89.80;;;;;;4934087;29;20210;-95
2022/12/11 00:25:03;;;;;;;27.33;14.70;;;5.00;89.80;;;;;;4939416;29;20746;-95
2022/12/11 00:27:36;;;;;;;30.93;14.00;;;5.00;89.80;;;;;;4939400;29;20646;-95
2022/12/11 00:30:10;;;;;;;31.23;14.97;;;5.00;89.50;;;;;;4937008;29;20201;-95
2022/12/11 00:32:37;;;;;;;34.47;14.87;;;5.00;89.50;;;;;;4936104;29;20223;-93
2022/12/11 00:35:10;;;;;;;26.87;13.73;;;5.00;88.90;;;;;;4936506;29;20228;-96
2022/12/11 00:37:37;;;;;;;26.60;13.63;;;5.10;89.10;;;;;;4938892;29;20271;-95
2022/12/11 00:40:06;;;;;;;24.40;12.47;;;5.10;88.90;;;;;;4939302;29;20201;-95
2022/12/11 00:42:35;;;;;;;25.60;13.07;;;5.10;89.10;;;;;;4943070;29;20214;-96
2022/12/11 00:45:08;;;;;;;27.23;13.77;;;5.10;88.90;;;;;;4936491;29;20213;-95
2022/12/11 00:47:37;;;;;;;26.27;13.00;;;5.10;88.80;;;;;;4937320;29;20228;-94
2022/12/11 00:50:06;;;;;;;29.10;14.07;;;5.10;89.50;;;;;;4932842;29;20239;-96
2022/12/11 00:52:35;;;;;;;26.27;13.50;;;5.10;88.80;;;;;;4941459;29;20221;-96
2022/12/11 00:55:02;;;;;;;27.40;14.57;;;5.10;88.40;;;;;;4944063;29;21026;-95
2022/12/11 00:57:36;;;;;;;25.30;12.97;;;5.20;88.50;;;;;;4928656;29;20209;-95
2022/12/11 01:00:08;;;;;;;35.30;14.70;;;5.10;88.90;;;;;;4935014;29;20204;-93
2022/12/11 01:02:35;;;;;;;33.40;13.83;;;5.10;89.00;;;;;;4927030;29;20216;-95
2022/12/11 01:05:03;;;;;;;27.73;13.17;;;5.10;88.90;;;;;;4931381;29;20212;-95
2022/12/11 01:07:31;;;;;;;28.77;13.40;;;5.20;88.90;;;;;;4931089;29;20321;-94
2022/12/11 01:12:45;;;;;;;33.73;15.17;;;5.20;89.00;;;;;;4951880;28;20215;-96
2022/12/11 01:15:14;;;;;;;23.23;12.57;;;5.20;89.00;;;;;;4953583;28;20204;-94
2022/12/11 01:17:45;;;;;;;24.33;12.53;;;5.20;89.00;;;;;;4948944;29;20266;-95
2022/12/11 01:20:13;;;;;;;22.93;11.53;;;5.20;89.00;;;;;;4942158;29;20203;-96
2022/12/11 01:22:41;;;;;;;28.30;13.27;;;5.20;89.00;;;;;;4941818;29;20204;-96
2022/12/11 01:25:09;;;;;;;26.43;13.37;;;5.20;89.00;;;;;;4936845;29;20245;-95
2022/12/11 01:27:42;;;;;;;26.30;12.73;;;5.20;89.10;;;;;;4932818;29;20229;-96
2022/12/11 01:30:10;;;;;;;24.93;12.37;;;5.20;89.00;;;;;;4927298;29;20742;-96
2022/12/11 01:32:41;;;;;;;20.63;10.73;;;5.20;88.80;;;;;;4943007;29;20208;-96
2022/12/11 01:35:17;;;;;;;25.73;11.43;;;5.20;88.60;;;;;;4937390;29;20204;-96
2022/12/11 01:37:48;;;;;;;22.33;11.83;;;5.30;88.80;;;;;;4933747;29;20283;-96
2022/12/11 01:40:19;;;;;;;26.63;12.67;;;5.20;88.60;;;;;;4942981;29;20201;-96
2022/12/11 01:42:48;;;;;;;26.67;12.27;;;5.20;88.40;;;;;;4937794;29;20604;-96
2022/12/11 01:45:32;;;;;;;25.83;12.93;;;5.30;88.30;;;;;;4944389;29;21023;-96
2022/12/11 01:48:10;;;;;;;26.77;12.33;;;5.30;88.50;;;;;;4944735;29;20430;-96
2022/12/11 01:50:41;;;;;;;26.23;12.03;;;5.30;88.60;;;;;;4937857;29;20625;-95
2022/12/11 01:53:15;;;;;;;21.27;10.53;;;5.20;88.60;;;;;;4931204;29;20221;-95
2022/12/11 01:55:44;;;;;;;24.27;12.17;;;5.20;88.60;;;;;;4925352;29;20297;-95
2022/12/11 01:58:14;;;;;;;28.40;12.53;;;5.20;88.40;;;;;;4934655;29;20239;-92
2022/12/11 02:00:41;;;;;;;27.87;13.23;;;5.30;88.80;;;;;;4935721;29;20207;-96
2022/12/11 02:03:17;;;;;;;28.63;13.30;;;5.30;88.50;;;;;;4935427;29;20240;-95
2022/12/11 02:05:45;;;;;;;26.50;11.73;;;5.30;88.60;;;;;;4932199;29;20319;-94
2022/12/11 02:08:12;;;;;;;24.20;11.27;;;5.30;88.50;;;;;;4934524;29;20743;-94
2022/12/11 02:11:06;;;;;;;25.23;11.60;;;5.30;88.50;;;;;;4936699;29;20204;-96
2022/12/11 02:13:42;;;;;;;25.03;11.43;;;5.30;88.90;;;;;;4952431;28;20200;-96
2022/12/11 02:16:19;;;;;;;23.30;12.20;;;5.30;88.70;;;;;;4934686;29;20209;-95
2022/12/11 02:18:54;;;;;;;24.50;11.73;;;5.30;88.60;;;;;;4940064;29;20299;-96
2022/12/11 02:21:27;;;;;;;20.33;10.80;;;5.40;88.60;;;;;;4940928;29;20200;-94
2022/12/11 02:24:32;;;;;;;26.63;12.47;;;5.40;88.40;;;;;;4940511;29;20228;-96
2022/12/11 02:27:19;;;;;;;27.20;12.97;;;5.40;88.50;;;;;;4941517;29;20231;-96
2022/12/11 02:29:52;;;;;;;23.43;12.13;;;5.40;88.40;;;;;;4928306;29;20212;-96
2022/12/11 02:32:24;;;;;;;27.93;12.37;;;5.40;88.20;;;;;;4938293;29;20201;-96
2022/12/11 02:34:57;;;;;;;27.03;12.63;;;5.40;88.10;;;;;;4938501;29;20963;-95
2022/12/11 02:37:29;;;;;;;24.53;11.33;;;5.40;88.10;;;;;;4937273;29;20263;-95
2022/12/11 02:39:57;;;;;;;30.20;12.77;;;5.40;88.00;;;;;;4936951;29;20208;-95
2022/12/11 02:42:30;;;;;;;27.00;12.50;;;5.40;87.80;;;;;;4936328;29;20219;-94
2022/12/11 02:45:01;;;;;;;26.73;11.67;;;5.40;87.80;;;;;;4937843;29;20212;-94
2022/12/11 02:47:33;;;;;;;25.53;12.37;;;5.40;87.80;;;;;;4935965;29;20224;-94
2022/12/11 02:50:08;;;;;;;36.13;14.60;;;5.40;87.80;;;;;;4930240;29;20668;-95
2022/12/11 02:52:38;;;;;;;32.47;13.83;;;5.40;87.80;;;;;;4923548;29;20287;-94
2022/12/11 02:55:11;;;;;;;32.50;12.77;;;5.50;88.00;;;;;;4925447;29;20312;-96
2022/12/11 02:57:45;;;;;;;27.40;13.10;;;5.40;88.20;;;;;;4929095;29;20205;-95
2022/12/11 03:00:17;;;;;;;26.17;11.70;;;5.40;88.20;;;;;;4932324;29;20205;-94
2022/12/11 03:02:46;;;;;;;24.80;11.93;;;5.40;88.10;;;;;;4932139;29;20310;-96
2022/12/11 03:05:14;;;;;;;29.83;12.17;;;5.50;88.20;;;;;;4925285;29;20275;-94
2022/12/11 03:07:44;;;;;;;29.23;12.63;;;5.50;88.00;;;;;;4926524;29;20347;-94
2022/12/11 03:10:14;;;;;;;27.33;12.33;;;5.50;88.00;;;;;;4934621;29;20236;-93
2022/12/11 03:12:45;;;;;;;30.03;12.13;;;5.50;87.80;;;;;;4948004;29;20197;-95
2022/12/11 03:15:18;;;;;;;26.00;12.07;;;5.50;87.60;;;;;;4933567;29;20209;-94
2022/12/11 03:18:01;;;;;;;24.23;11.70;;;5.50;87.70;;;;;;4935174;29;20650;-95
2022/12/11 03:20:37;;;;;;;31.23;12.83;;;5.50;88.00;;;;;;4932189;29;20212;-94
2022/12/11 03:23:13;;;;;;;27.03;12.90;;;5.50;88.00;;;;;;4930517;29;20573;-93
2022/12/11 03:25:47;;;;;;;31.13;14.43;;;5.50;88.00;;;;;;4928442;29;20663;-95
2022/12/11 03:28:19;;;;;;;35.80;14.67;;;5.50;87.90;;;;;;4921455;29;20236;-94
2022/12/11 03:30:54;;;;;;;30.63;14.23;;;5.60;88.00;;;;;;4936653;29;20206;-94
2022/12/11 03:33:26;;;;;;;32.53;14.97;;;5.50;87.70;;;;;;4936707;29;20213;-95
2022/12/11 03:35:59;;;;;;;34.00;14.60;;;5.50;87.60;;;;;;4936042;29;20649;-95
2022/12/11 03:38:31;;;;;;;32.60;14.60;;;5.60;87.90;;;;;;4936938;29;20212;-95
2022/12/11 03:41:01;;;;;;;32.30;14.20;;;5.50;87.70;;;;;;4930894;29;20221;-94
2022/12/11 03:43:30;;;;;;;30.33;13.87;;;5.60;88.10;;;;;;4938074;29;20223;-95
2022/12/11 03:46:01;;;;;;;24.60;13.23;;;5.50;87.90;;;;;;4937612;29;20212;-94
2022/12/11 03:48:34;;;;;;;31.00;14.63;;;5.50;88.20;;;;;;4937355;29;20275;-95
2022/12/11 03:51:05;;;;;;;30.30;14.90;;;5.50;88.30;;;;;;4937969;29;20283;-95
2022/12/11 03:53:34;;;;;;;31.73;14.47;;;5.50;88.20;;;;;;4939173;29;20202;-95
2022/12/11 03:56:02;;;;;;;33.33;14.47;;;5.50;88.10;;;;;;4937577;29;20295;-95
2022/12/11 03:58:32;;;;;;;30.30;14.00;;;5.50;88.10;;;;;;4935598;29;20284;-95
2022/12/11 04:01:01;;;;;;;34.43;14.70;;;5.50;88.10;;;;;;4936403;29;20215;-95
2022/12/11 04:03:29;;;;;;;35.03;14.73;;;5.60;87.90;;;;;;4935806;29;20336;-95
2022/12/11 04:06:00;;;;;;;28.83;13.53;;;5.60;87.80;;;;;;4934776;29;20225;-95
2022/12/11 04:08:28;;;;;;;30.80;14.67;;;5.50;87.50;;;;;;4936972;29;20239;-95
2022/12/11 04:13:37;;;;;;;23.43;12.57;;;5.60;87.60;;;;;;4934824;29;20627;-94
2022/12/11 04:16:07;;;;;;;31.00;14.97;;;5.60;87.70;;;;;;4935722;29;20315;-94
2022/12/11 04:24:17;;;;;;;32.17;14.53;;;5.60;87.60;;;;;;4924935;29;20203;-94
2022/12/11 04:26:46;;;;;;;33.43;14.93;;;5.60;87.80;;;;;;4930591;29;20220;-94
2022/12/11 04:29:14;;;;;;;31.63;14.00;;;5.60;87.80;;;;;;4918949;29;20236;-94
2022/12/11 04:31:46;;;;;;;30.57;14.13;;;5.60;88.00;;;;;;4930874;29;20272;-95
2022/12/11 04:34:14;;;;;;;27.20;13.13;;;5.60;88.00;;;;;;4935429;29;20269;-94
2022/12/11 04:36:41;;;;;;;33.60;15.53;;;5.60;87.80;;;;;;4931594;29;20208;-95
2022/12/11 04:39:08;;;;;;;39.07;17.17;;;5.60;87.60;;;;;;4928695;29;20211;-94
2022/12/11 04:41:36;;;;;;;27.40;13.73;;;5.60;87.70;;;;;;4932795;29;20237;-94
2022/12/11 04:44:03;;;;;;;31.07;14.23;;;5.60;87.50;;;;;;4935173;29;20208;-94
2022/12/11 04:46:38;;;;;;;35.37;15.50;;;5.60;87.50;;;;;;4933804;29;20666;-93
2022/12/11 04:49:11;;;;;;;32.80;14.50;;;5.70;87.50;;;;;;4935140;29;20233;-95
2022/12/11 04:51:40;;;;;;;29.73;14.93;;;5.60;87.20;;;;;;4927943;29;20217;-94
2022/12/11 04:54:08;;;;;;;28.57;14.27;;;5.60;87.40;;;;;;4937224;29;20259;-94
2022/12/11 04:56:39;;;;;;;28.73;13.67;;;5.60;87.10;;;;;;4941570;29;20248;-95
2022/12/11 04:59:08;;;;;;;34.13;16.07;;;5.60;87.50;;;;;;4924713;29;20280;-92
2022/12/11 05:01:41;;;;;;;34.80;15.77;;;5.60;87.10;;;;;;4940229;29;20227;-95
2022/12/11 05:04:11;;;;;;;34.00;15.50;;;5.60;87.00;;;;;;4936377;29;20240;-95
2022/12/11 05:06:39;;;;;;;31.60;15.43;;;5.60;86.80;;;;;;4935826;29;20238;-95
2022/12/11 05:09:13;;;;;;;33.73;16.27;;;5.60;86.90;;;;;;4933395;29;20430;-94
2022/12/11 05:11:40;;;;;;;39.20;16.97;;;5.50;87.00;;;;;;4928786;29;20208;-94
2022/12/11 05:14:10;;;;;;;36.00;16.73;;;5.50;86.80;;;;;;4940889;29;20200;-96
2022/12/11 05:16:43;;;;;;;31.97;15.03;;;5.50;87.20;;;;;;4938394;29;20268;-95
2022/12/11 05:19:11;;;;;;;31.57;16.63;;;5.50;87.20;;;;;;4945607;29;20921;-95
2022/12/11 05:21:41;;;;;;;32.60;16.30;;;5.50;86.90;;;;;;4932669;29;20198;-96
2022/12/11 05:24:09;;;;;;;28.03;15.50;;;5.50;86.90;;;;;;4940257;29;20215;-95
2022/12/11 05:26:36;;;;;;;29.57;15.30;;;5.50;87.10;;;;;;4938311;29;20243;-95
2022/12/11 05:29:03;;;;;;;27.20;14.33;;;5.50;87.30;;;;;;4937433;29;20240;-93
2022/12/11 05:31:33;;;;;;;32.07;15.93;;;5.50;87.60;;;;;;4937980;29;20299;-96
2022/12/11 05:34:02;;;;;;;30.53;16.37;;;5.50;87.60;;;;;;4937102;29;20232;-95
2022/12/11 05:36:33;;;;;;;30.00;14.80;;;5.50;87.60;;;;;;4935468;29;20236;-95
2022/12/11 05:39:02;;;;;;;30.17;16.03;;;5.40;87.60;;;;;;4937030;29;20237;-95
2022/12/11 05:41:31;;;;;;;30.13;15.37;;;5.50;87.60;;;;;;4936094;29;20209;-96
2022/12/11 05:43:59;;;;;;;28.07;15.67;;;5.50;87.60;;;;;;4918068;29;20305;-94
2022/12/11 05:46:29;;;;;;;26.83;15.37;;;5.50;87.60;;;;;;4933486;29;20300;-94
2022/12/11 05:48:59;;;;;;;33.10;16.53;;;5.50;87.60;;;;;;4935054;29;20275;-94
2022/12/11 05:51:27;;;;;;;30.70;15.30;;;5.50;87.60;;;;;;4934281;29;20212;-95
2022/12/11 05:53:58;;;;;;;33.20;16.00;;;5.40;87.30;;;;;;4934053;29;20208;-94
2022/12/11 05:56:29;;;;;;;31.03;15.37;;;5.50;87.40;;;;;;4934401;29;20717;-94
2022/12/11 05:58:59;;;;;;;26.70;14.03;;;5.50;87.50;;;;;;4930789;29;20910;-94
2022/12/11 06:01:29;;;;;;;33.37;15.67;;;5.50;87.50;;;;;;4914332;29;20224;-94
2022/12/11 06:03:57;;;;;;;30.60;15.47;;;5.50;87.60;;;;;;4924497;29;21002;-95
2022/12/11 06:06:25;;;;;;;36.33;17.03;;;5.50;87.60;;;;;;4933642;29;20532;-94
2022/12/11 06:09:03;;;;;;;32.97;16.40;;;5.50;87.60;;;;;;4956535;28;20244;-95
2022/12/11 06:11:36;;;;;;;25.13;14.97;;;5.50;87.60;;;;;;4942254;29;20204;-95
2022/12/11 06:14:04;;;;;;;33.90;15.40;;;5.50;87.20;;;;;;4938999;29;20231;-95
2022/12/11 06:16:32;;;;;;;31.37;15.37;;;5.50;87.00;;;;;;4936755;29;20231;-95
2022/12/11 06:19:01;;;;;;;32.67;16.60;;;5.50;86.90;;;;;;4937927;29;20232;-95
2022/12/11 06:21:31;;;;;;;30.97;16.37;;;5.50;86.80;;;;;;4937817;29;20208;-95
2022/12/11 06:24:04;;;;;;;33.07;15.77;;;5.50;86.80;;;;;;4923245;29;20272;-95
2022/12/11 06:26:34;;;;;;;32.87;17.17;;;5.50;86.80;;;;;;4935803;29;20204;-95
2022/12/11 06:29:01;;;;;;;30.27;15.60;;;5.50;86.70;;;;;;4936939;29;20694;-96
2022/12/11 06:31:29;;;;;;;32.37;15.60;;;5.50;86.70;;;;;;4936981;29;20299;-95
2022/12/11 06:33:56;;;;;;;33.27;15.93;;;5.40;86.70;;;;;;4936726;29;20323;-95
2022/12/11 06:36:24;;;;;;;33.93;16.87;;;5.40;86.50;;;;;;4935759;29;20656;-95
2022/12/11 06:38:58;;;;;;;32.80;16.63;;;5.40;86.70;;;;;;4931424;29;20200;-94
2022/12/11 06:41:29;;;;;;;29.00;15.07;;;5.50;86.00;;;;;;4937701;29;20610;-95
2022/12/11 06:43:57;;;;;;;29.80;14.70;;;5.40;85.70;;;;;;4936782;29;20220;-95
2022/12/11 06:46:24;;;;;;;27.03;14.97;;;5.40;85.50;;;;;;4936294;29;20224;-95
2022/12/11 06:48:52;;;;;;;27.47;13.97;;;5.40;85.50;;;;;;4937237;29;20224;-96
2022/12/11 06:51:23;;;;;;;26.17;14.03;;;5.40;85.50;;;;;;4937660;29;20237;-95
2022/12/11 06:53:54;;;;;;;29.27;15.03;;;5.40;85.60;;;;;;4942765;29;20236;-96
2022/12/11 06:56:25;;;;;;;25.67;14.43;;;5.40;85.50;;;;;;4941162;29;20594;-95
2022/12/11 06:58:55;;;;;;;26.63;13.77;;;5.40;85.50;;;;;;4941530;29;20205;-94
2022/12/11 07:01:25;;;;;;;24.07;13.73;;;5.40;85.60;;;;;;4940638;29;20216;-95
2022/12/11 07:03:54;;;;;;;32.87;15.37;;;5.40;85.60;;;;;;4932805;29;20730;-94
2022/12/11 07:06:22;;;;;;;31.80;15.30;;;5.40;85.40;;;;;;4943622;29;20243;-95
2022/12/11 07:08:54;;;;;;;28.30;14.37;;;5.40;85.10;;;;;;4952815;28;20280;-96
2022/12/11 07:11:24;;;;;;;24.93;14.03;;;5.40;84.60;;;;;;4939334;29;20314;-96
2022/12/11 07:13:55;;;;;;;30.83;16.40;;;5.40;84.20;;;;;;4937789;29;20235;-96
2022/12/11 07:16:27;;;;;;;29.30;14.67;;;5.40;84.30;;;;;;4939405;29;20204;-96
2022/12/11 07:19:16;;;;;;;28.30;14.80;;;5.40;84.20;;;;;;4937278;29;20693;-95
2022/12/11 07:21:43;;;;;;;26.87;13.57;;;5.40;84.20;;;;;;4948438;29;20286;-96
2022/12/11 07:24:16;;;;;;;34.80;15.10;;;5.40;84.10;;;;;;4943084;29;20231;-95
2022/12/11 07:26:45;;;;;;;27.73;15.03;;;5.40;83.80;;;;;;4948330;28;20212;-96
2022/12/11 07:29:14;;;;;;;37.00;16.53;;;5.30;83.40;;;;;;4948083;28;20243;-96
2022/12/11 07:31:47;;;;;;;41.40;17.37;;;5.40;83.20;;;;;;4953932;28;20184;-96
2022/12/11 07:34:14;;;;;;;33.83;15.97;;;5.30;82.80;;;;;;4944832;28;20204;-95
2022/12/11 07:36:44;;;;;;;28.60;14.57;;;5.30;82.90;;;;;;4936779;29;20206;-95
2022/12/11 07:39:11;;;;;;;27.87;13.53;;;5.20;83.10;;;;;;4939086;29;20235;-95
2022/12/11 07:41:39;;;;;;;31.57;14.83;;;5.20;83.30;;;;;;4941165;29;20203;-96
2022/12/11 07:44:06;;;;;;;21.67;13.07;;;5.30;83.50;;;;;;4945523;29;20192;-96
2022/12/11 07:46:36;;;;;;;28.50;14.73;;;5.30;83.20;;;;;;4938340;29;20227;-96
2022/12/11 07:49:10;;;;;;;27.30;13.93;;;5.20;82.70;;;;;;4943030;29;20228;-95
2022/12/11 07:51:38;;;;;;;29.33;14.47;;;5.20;82.70;;;;;;4945089;29;20213;-96
2022/12/11 07:54:09;;;;;;;34.43;16.13;;;5.20;82.80;;;;;;4937066;29;20215;-95
2022/12/11 07:56:37;;;;;;;30.43;14.87;;;5.20;82.70;;;;;;4936771;29;20242;-94
2022/12/11 07:59:08;;;;;;;34.67;15.80;;;5.20;83.20;;;;;;4937126;29;20200;-95
2022/12/11 08:01:36;;;;;;;32.27;15.40;;;5.10;82.00;;;;;;4917200;29;20729;-94
2022/12/11 08:04:04;;;;;;;45.97;18.10;;;5.10;82.20;;;;;;4928609;29;20317;-94
2022/12/11 08:06:35;;;;;;;35.90;15.43;;;5.10;82.30;;;;;;4933564;29;20212;-95
2022/12/11 08:09:06;;;;;;;30.07;14.53;;;5.10;82.50;;;;;;4933963;29;20746;-96
2022/12/11 08:11:35;;;;;;;26.83;15.07;;;5.10;82.50;;;;;;4937583;29;20303;-94
2022/12/11 08:14:04;;;;;;;37.27;16.73;;;5.00;82.40;;;;;;4925446;29;20212;-95
2022/12/11 08:16:32;;;;;;;35.77;16.30;;;5.00;82.40;;;;;;4934387;29;20252;-95
2022/12/11 08:19:08;;;;;;;34.03;15.67;;;5.00;82.50;;;;;;4921793;29;20247;-95
2022/12/11 08:21:37;;;;;;;34.90;16.07;;;5.00;82.90;;;;;;4923512;29;20239;-95
2022/12/11 08:24:11;;;;;;;36.73;17.37;;;5.00;82.70;;;;;;4920160;29;20640;-96
2022/12/11 08:26:40;;;;;;;29.30;14.87;;;5.00;82.70;;;;;;4933104;29;20232;-96
2022/12/11 08:29:07;;;;;;;32.70;17.07;;;4.90;82.70;;;;;;4922060;29;20740;-95
2022/12/11 08:31:35;;;;;;;37.00;16.70;;;4.90;82.60;;;;;;4935893;29;20678;-95
2022/12/11 08:34:12;;;;;;;30.10;14.33;;;4.90;82.80;;;;;;4936741;29;20236;-96
2022/12/11 08:36:50;;;;;;;29.97;14.60;;;4.80;83.00;;;;;;4930837;29;20203;-96
2022/12/11 08:39:20;;;;;;;32.73;15.67;;;4.90;82.90;;;;;;4945753;29;20234;-96
2022/12/11 08:41:53;;;;;;;32.00;15.77;;;4.80;82.20;;;;;;4925052;29;20224;-96
2022/12/11 08:44:28;;;;;;;31.03;16.07;;;4.80;82.30;;;;;;4941992;29;20660;-96
2022/12/11 08:47:04;;;;;;;28.93;15.30;;;4.80;82.50;;;;;;4923937;29;20271;-96
2022/12/11 08:49:33;;;;;;;29.83;15.53;;;4.80;82.50;;;;;;4941078;29;20237;-96
2022/12/11 08:52:31;;;;;;;32.90;16.60;;;4.80;82.80;;;;;;4935313;29;20234;-96
2022/12/11 08:55:09;;;;;;;38.90;17.43;;;4.80;82.80;;;;;;4941602;29;20225;-96
2022/12/11 08:57:40;;;;;;;30.70;16.63;;;4.80;82.40;;;;;;4939205;29;20291;-96
2022/12/11 09:00:12;;;;;;;31.57;16.23;;;4.70;82.60;;;;;;4938333;29;20211;-96
2022/12/11 09:03:01;;;;;;;32.53;15.57;;;4.70;82.90;;;;;;4939332;29;20215;-96
2022/12/11 09:05:30;;;;;;;33.67;17.10;;;4.70;83.20;;;;;;4950414;29;20246;-96
2022/12/11 09:08:03;;;;;;;34.47;17.63;;;4.70;82.90;;;;;;4936013;29;20213;-96
2022/12/11 11:31:35;;;;;;;36.67;17.47;;;5.00;82.90;;;;;;4948429;29;20302;-96
2022/12/11 11:38:37;;;;;;;35.37;17.50;;;5.00;82.90;;;;;;4930874;29;20209;-96
2022/12/11 11:41:34;;;;;;;42.00;19.40;;;5.00;83.20;;;;;;4927635;29;20232;-96
2022/12/11 11:44:38;;;;;;;32.67;16.83;;;5.00;83.10;;;;;;4928570;29;20310;-96
2022/12/11 11:47:30;;;;;;;36.33;18.10;;;4.90;83.40;;;;;;4935297;29;20205;-96
2022/12/11 11:50:39;;;;;;;36.20;17.90;;;4.90;83.30;;;;;;4952417;29;20271;-96
2022/12/11 11:53:29;;;;;;;30.13;15.63;;;4.90;83.70;;;;;;4914536;29;20217;-96
2022/12/11 11:56:07;;;;;;;26.57;15.13;;;4.90;83.70;;;;;;4910976;29;20949;-96
2022/12/11 12:01:34;;;;;;;37.53;17.60;;;5.00;83.60;;;;;;4919638;29;20214;-96
2022/12/11 12:04:05;;;;;;;34.80;16.87;;;5.00;83.40;;;;;;5001935;23;20243;-96
2022/12/11 12:06:59;;;;;;;31.73;15.57;;;5.00;83.00;;;;;;4956712;29;20212;-96
2022/12/11 12:09:44;;;;;;;31.87;15.37;;;5.00;83.10;;;;;;4959090;29;20256;-96
2022/12/11 12:12:46;;;;;;;24.70;13.37;;;5.00;82.60;;;;;;4975966;28;20202;-96
2022/12/11 12:15:35;;;;;;;25.67;14.07;;;5.00;82.40;;;;;;4973069;28;20191;-96
2022/12/11 12:18:17;;;;;;;26.50;13.47;;;5.00;82.10;;;;;;4975055;28;20207;-96
2022/12/11 12:21:03;;;;;;;30.53;14.40;;;5.00;83.00;;;;;;4971981;28;20207;-96
2022/12/11 12:24:05;;;;;;;29.70;14.17;;;5.00;81.90;;;;;;4972862;28;20204;-96
2022/12/11 12:26:51;;;;;;;26.97;14.20;;;5.00;82.40;;;;;;4973203;28;20207;-96
2022/12/11 12:29:58;;;;;;;27.33;14.23;;;5.00;82.40;;;;;;4973319;28;20284;-95
2022/12/11 12:32:56;;;;;;;35.83;15.33;;;5.00;82.80;;;;;;4973858;28;20240;-96
2022/12/11 12:35:55;;;;;;;26.90;13.43;;;5.10;82.80;;;;;;4976584;28;20216;-96
2022/12/11 12:38:43;;;;;;;31.23;13.67;;;5.00;82.20;;;;;;4959171;28;20208;-96
2022/12/11 12:41:22;;;;;;;28.27;13.63;;;5.10;82.40;;;;;;4959922;29;20202;-96
2022/12/11 12:47:12;;;;;;;33.53;13.63;;;5.10;82.50;;;;;;4959423;28;20199;-96
2022/12/11 12:49:49;;;;;;;27.70;13.23;;;5.10;82.50;;;;;;4956524;28;20243;-96
2022/12/11 12:52:54;;;;;;;22.80;12.87;;;5.10;82.20;;;;;;4941768;29;20618;-96
2022/12/11 12:55:31;;;;;;;23.83;11.97;;;5.10;82.10;;;;;;4956463;28;20258;-96
2022/12/11 12:58:04;;;;;;;28.47;14.90;;;5.10;81.90;;;;;;4946919;28;20215;-96
2022/12/11 13:00:43;;;;;;;25.30;12.87;;;5.10;81.90;;;;;;4952761;29;20251;-96
2022/12/11 13:03:15;;;;;;;23.10;12.27;;;5.10;81.80;;;;;;4961294;28;20235;-96
2022/12/11 13:06:02;;;;;;;25.17;12.93;;;5.10;81.80;;;;;;4962160;28;20228;-96
2022/12/11 13:09:03;;;;;;;23.97;12.13;;;5.10;81.50;;;;;;4967584;29;20207;-96
2022/12/11 13:11:59;;;;;;;23.57;11.93;;;5.10;81.80;;;;;;4968580;28;20207;-96
2022/12/11 13:14:37;;;;;;;23.73;13.17;;;5.10;81.50;;;;;;4967082;29;20212;-96
2022/12/11 13:17:32;;;;;;;28.00;13.13;;;5.10;81.60;;;;;;4969939;28;20195;-96
2022/12/11 13:20:30;;;;;;;27.60;13.60;;;5.10;81.80;;;;;;4947798;29;20218;-96
2022/12/11 13:23:24;;;;;;;25.67;12.07;;;5.10;81.80;;;;;;4950143;29;20557;-96
2022/12/11 13:26:03;;;;;;;27.53;13.17;;;5.10;82.00;;;;;;4963974;28;20200;-96
2022/12/11 13:28:49;;;;;;;25.43;12.53;;;5.10;81.90;;;;;;4960137;28;20204;-95
2022/12/11 13:31:35;;;;;;;28.23;13.40;;;5.20;82.00;;;;;;4947298;29;20242;-96
2022/12/11 13:34:24;;;;;;;32.20;15.17;;;5.20;82.20;;;;;;4950896;29;20736;-96
2022/12/11 13:37:04;;;;;;;33.50;15.30;;;5.20;82.20;;;;;;4953143;29;20287;-96
2022/12/11 13:39:56;;;;;;;32.77;14.50;;;5.20;82.20;;;;;;4956488;28;20219;-96
2022/12/11 13:42:37;;;;;;;30.90;15.33;;;5.20;82.10;;;;;;4961216;29;20239;-95
2022/12/11 13:45:24;;;;;;;35.73;16.30;;;5.20;82.10;;;;;;4964007;29;20221;-96
2022/12/11 13:47:59;;;;;;;26.00;12.87;;;5.20;81.80;;;;;;4956707;28;20218;-96
2022/12/11 13:50:38;;;;;;;26.67;14.27;;;5.20;81.80;;;;;;4958636;28;20242;-96
2022/12/11 13:53:16;;;;;;;30.27;14.23;;;5.20;81.80;;;;;;4955540;29;20231;-95
2022/12/11 13:56:00;;;;;;;25.97;12.70;;;5.20;81.90;;;;;;4958881;29;20211;-96
2022/12/11 13:58:29;;;;;;;32.13;15.37;;;5.20;81.90;;;;;;4953676;28;20227;-96
2022/12/11 14:01:09;;;;;;;36.30;15.50;;;5.20;81.80;;;;;;4967887;29;20207;-96
2022/12/11 14:03:43;;;;;;;25.13;13.80;;;5.10;81.80;;;;;;4968038;28;20234;-96
2022/12/11 14:06:14;;;;;;;33.80;15.57;;;5.10;81.70;;;;;;4963108;28;20218;-96
2022/12/11 14:09:05;;;;;;;29.10;14.27;;;5.10;81.80;;;;;;4957609;28;20238;-96
2022/12/11 14:11:41;;;;;;;29.77;13.77;;;5.10;82.10;;;;;;4953737;28;20238;-96
2022/12/11 14:14:21;;;;;;;27.67;13.90;;;5.20;82.20;;;;;;4953819;28;20319;-95
2022/12/11 14:16:53;;;;;;;24.80;11.30;;;5.20;82.20;;;;;;4953866;28;20676;-96
2022/12/11 14:19:24;;;;;;;20.13;10.63;;;5.10;82.00;;;;;;4955600;28;20234;-96
2022/12/11 14:22:18;;;;;;;30.70;12.53;;;5.20;82.00;;;;;;4940788;29;20216;-96
2022/12/11 14:24:57;;;;;;;29.13;12.67;;;5.10;82.00;;;;;;4951664;29;20234;-96
2022/12/11 14:28:00;;;;;;;22.40;10.00;;;5.10;82.30;;;;;;4953960;28;20210;-96
2022/12/11 14:30:54;;;;;;;26.37;11.33;;;5.10;82.30;;;;;;4948431;29;20583;-96
2022/12/11 14:33:29;;;;;;;26.60;10.77;;;5.20;82.50;;;;;;4944018;29;20200;-96
2022/12/11 14:36:07;;;;;;;26.63;10.43;;;5.20;82.10;;;;;;4956569;28;20211;-96
2022/12/11 14:41:36;;;;;;;24.03;11.07;;;5.20;81.70;;;;;;4954767;28;20649;-96
2022/12/11 14:44:17;;;;;;;24.83;12.00;;;5.20;81.80;;;;;;4953512;28;20622;-96
2022/12/11 14:47:05;;;;;;;26.27;12.93;;;5.20;81.90;;;;;;4955169;28;20628;-96
2022/12/11 14:49:47;;;;;;;25.50;12.03;;;5.20;81.60;;;;;;4956727;28;20224;-96
2022/12/11 14:52:20;;;;;;;28.60;13.37;;;5.20;81.70;;;;;;4953627;29;20771;-96
2022/12/11 14:55:10;;;;;;;25.87;12.07;;;5.20;81.70;;;;;;4942430;28;20207;-96
2022/12/11 14:57:49;;;;;;;27.23;12.90;;;5.20;82.00;;;;;;4959987;29;20327;-96
2022/12/11 15:00:31;;;;;;;28.03;13.17;;;5.30;82.30;;;;;;4956366;28;20239;-96
2022/12/11 15:03:14;;;;;;;24.40;12.77;;;5.30;82.00;;;;;;4941413;29;20208;-96
2022/12/11 15:05:53;;;;;;;25.33;12.13;;;5.30;82.00;;;;;;4954184;28;20218;-96
2022/12/11 15:08:27;;;;;;;29.93;14.00;;;5.30;82.20;;;;;;4943124;28;20287;-96
2022/12/11 15:11:11;;;;;;;24.80;12.93;;;5.30;82.20;;;;;;4950284;29;20230;-96
2022/12/11 15:13:56;;;;;;;24.90;12.20;;;5.30;82.00;;;;;;4959822;29;20213;-96
2022/12/11 15:16:33;;;;;;;22.30;12.87;;;5.30;82.00;;;;;;4962708;28;20210;-96
2022/12/11 15:19:07;;;;;;;27.23;13.80;;;5.30;81.80;;;;;;4955666;29;20210;-96
2022/12/11 15:21:49;;;;;;;20.50;12.63;;;5.30;81.60;;;;;;4945495;29;20216;-96
2022/12/11 15:24:48;;;;;;;28.37;12.40;;;5.30;81.50;;;;;;4955363;29;20208;-96
2022/12/11 15:27:35;;;;;;;27.13;14.13;;;5.30;81.60;;;;;;4957728;28;20686;-96
2022/12/11 15:30:35;;;;;;;24.73;12.83;;;5.30;81.40;;;;;;4956351;28;20241;-96
2022/12/11 15:33:08;;;;;;;27.23;13.77;;;5.30;81.50;;;;;;4953229;28;20209;-96
2022/12/11 15:35:38;;;;;;;30.07;14.13;;;5.30;81.50;;;;;;4945841;29;20291;-96
2022/12/11 15:38:29;;;;;;;28.73;14.10;;;5.20;81.40;;;;;;4957179;29;20203;-96
2022/12/11 15:41:04;;;;;;;23.03;13.27;;;5.20;81.60;;;;;;4943523;29;20207;-96
2022/12/11 15:47:14;;;;;;;28.80;14.57;;;5.20;81.80;;;;;;4953624;28;20194;-96
2022/12/11 15:50:01;;;;;;;35.37;14.97;;;5.20;81.80;;;;;;4948703;28;20223;-96
2022/12/11 15:52:37;;;;;;;27.63;14.17;;;5.20;82.20;;;;;;4946073;29;20207;-96
2022/12/11 15:55:33;;;;;;;33.67;14.93;;;5.30;82.20;;;;;;4956645;29;20203;-96
2022/12/11 15:58:34;;;;;;;28.93;14.90;;;5.30;82.30;;;;;;4960269;28;20219;-96
2022/12/11 16:04:58;;;;;;;37.00;15.77;;;5.30;82.30;;;;;;4903868;29;20228;-96
2022/12/11 16:07:52;;;;;;;;;;;;;;;;;;;;;
2022/12/11 16:13:42;;;;;;;36.07;15.50;;;5.30;81.70;;;;;;4936879;29;20207;-96